X  Close Metar Aviation Weather Data        KGAI Gaithersburg
Temperature
58°F Temperature
47°F Dewpoint
67% Humidity



Wind
5 MPH
7 KM/H
2 M/S
4 KTS



280°
W
Current Conditions

Mostly Cloudy Mostly Cloudy
Pressure 1013 (hPa) - 29.91 (inHg)
Visibility 0 (mile) - 0 (km)
Airport
Airport-code KGAI

Location: Gaithersburg
Distance: 11 (mi)

Metar:
METAR KGAI 270356Z AUTO 28004KT BKN100 14/08 A2988 RMK AO2 SLP128 T01440083 PWINO $

Time: 09-26-2022 11:56 pm EDT